createdAt,value
2018-04-17T00:01:00.855Z,11.11
2018-04-17T00:02:06.366Z,11.14
2018-04-17T00:03:11.875Z,11.03
2018-04-17T00:04:17.388Z,11.01
2018-04-17T00:05:22.897Z,11.07
2018-04-17T00:06:28.410Z,10.99
2018-04-17T00:07:33.922Z,10.91
2018-04-17T00:08:39.440Z,11.02
2018-04-17T00:09:44.954Z,10.98
2018-04-17T00:10:50.457Z,10.95
2018-04-17T00:11:55.970Z,10.96
2018-04-17T00:13:01.481Z,10.98
2018-04-17T00:14:06.994Z,10.95
2018-04-17T00:15:12.506Z,11.06
2018-04-17T00:16:18.029Z,11.02
2018-04-17T00:17:23.529Z,10.91
2018-04-17T00:18:29.042Z,10.96
2018-04-17T00:19:34.557Z,10.94
2018-04-17T00:20:40.077Z,10.91
2018-04-17T00:21:45.577Z,10.91
2018-04-17T00:22:51.087Z,10.81
2018-04-17T00:23:56.695Z,10.94
2018-04-17T00:25:02.114Z,10.94
2018-04-17T00:26:07.620Z,10.80
2018-04-17T00:27:13.133Z,10.78
2018-04-17T00:28:18.645Z,10.88
2018-04-17T00:29:24.177Z,10.92
2018-04-17T00:30:29.676Z,10.94
2018-04-17T00:31:35.198Z,10.81
2018-04-17T00:32:40.691Z,10.86
2018-04-17T00:33:46.207Z,10.80
2018-04-17T00:34:51.712Z,10.77
2018-04-17T00:35:57.223Z,10.78
2018-04-17T00:37:02.738Z,10.76
2018-04-17T00:38:08.246Z,10.76
2018-04-17T00:39:13.763Z,10.76
2018-04-17T00:40:19.272Z,10.68
2018-04-17T00:41:24.787Z,10.70
2018-04-17T00:42:30.296Z,10.71
2018-04-17T00:43:35.805Z,10.63
2018-04-17T00:44:41.316Z,10.53
2018-04-17T00:45:46.827Z,10.62
2018-04-17T00:46:52.349Z,10.60
2018-04-17T00:47:57.851Z,10.56
2018-04-17T00:49:03.365Z,10.63
2018-04-17T00:50:08.877Z,10.68
2018-04-17T00:51:14.388Z,10.60
2018-04-17T00:52:19.902Z,10.63
2018-04-17T00:53:25.415Z,10.62
2018-04-17T00:54:30.929Z,10.60
2018-04-17T00:55:36.436Z,10.65
2018-04-17T00:56:41.949Z,10.60
2018-04-17T00:57:47.482Z,10.53
2018-04-17T00:58:52.967Z,10.52
2018-04-17T00:59:58.484Z,10.43
2018-04-17T01:01:03.993Z,10.53
2018-04-17T01:02:09.507Z,10.46
2018-04-17T01:03:15.018Z,10.46
2018-04-17T01:04:20.527Z,10.36
2018-04-17T01:05:26.056Z,10.33
2018-04-17T01:06:31.548Z,10.37
2018-04-17T01:07:37.069Z,10.39
2018-04-17T01:08:42.584Z,10.39
2018-04-17T01:09:48.081Z,10.30
2018-04-17T01:10:53.599Z,10.30
2018-04-17T01:11:59.103Z,10.21
2018-04-17T01:13:04.618Z,10.28
2018-04-17T01:14:10.132Z,10.28
2018-04-17T01:15:15.648Z,10.17
2018-04-17T01:16:21.148Z,10.21
2018-04-17T01:17:26.660Z,10.15
2018-04-17T01:18:32.175Z,10.18
2018-04-17T01:19:37.685Z,10.10
2018-04-17T01:20:43.197Z,10.07
2018-04-17T01:21:48.709Z,10.12
2018-04-17T01:22:54.221Z,10.18
2018-04-17T01:23:59.728Z,10.12
2018-04-17T01:25:05.249Z,10.07
2018-04-17T01:26:10.754Z,10.12
2018-04-17T01:27:16.264Z,10.07
2018-04-17T01:28:21.776Z,9.97
2018-04-17T01:29:27.293Z,10.01
2018-04-17T01:30:32.793Z,10.00
2018-04-17T01:31:38.304Z,9.97
2018-04-17T01:32:43.818Z,9.97
2018-04-17T01:33:49.328Z,10.00
2018-04-17T01:34:54.842Z,9.93
2018-04-17T01:36:00.357Z,9.93
2018-04-17T01:37:05.865Z,9.91
2018-04-17T01:38:11.380Z,9.91
2018-04-17T01:39:16.884Z,9.88
2018-04-17T01:40:22.405Z,9.94
2018-04-17T01:41:27.907Z,9.93
2018-04-17T01:42:33.496Z,9.93
2018-04-17T01:43:38.928Z,9.93
2018-04-17T01:44:44.438Z,9.89
2018-04-17T01:45:49.955Z,9.88
2018-04-17T01:46:55.459Z,9.94
2018-04-17T01:48:00.977Z,9.91
2018-04-17T01:49:06.489Z,9.97
2018-04-17T01:50:11.995Z,9.94
2018-04-17T01:51:17.508Z,9.83
2018-04-17T01:52:23.013Z,9.93
2018-04-17T01:53:28.527Z,9.88
2018-04-17T01:54:34.038Z,9.91
2018-04-17T01:55:39.550Z,9.83
2018-04-17T01:56:45.061Z,9.79
2018-04-17T01:57:50.568Z,9.89
2018-04-17T01:58:56.080Z,9.85
2018-04-17T02:00:01.602Z,9.82
2018-04-17T02:01:07.108Z,9.82
2018-04-17T02:02:12.615Z,9.83
2018-04-17T02:03:18.144Z,9.78
2018-04-17T02:04:23.637Z,9.85
2018-04-17T02:05:29.148Z,9.76
2018-04-17T02:06:34.662Z,9.79
2018-04-17T02:07:40.172Z,9.83
2018-04-17T02:08:45.682Z,9.76
2018-04-17T02:09:51.193Z,9.78
2018-04-17T02:10:56.701Z,9.79
2018-04-17T02:12:02.210Z,9.78
2018-04-17T02:13:07.727Z,9.70
2018-04-17T02:14:13.239Z,9.70
2018-04-17T02:15:18.763Z,9.66
2018-04-17T02:16:24.261Z,9.71
2018-04-17T02:17:29.767Z,9.64
2018-04-17T02:18:35.283Z,9.67
2018-04-17T02:19:40.790Z,9.63
2018-04-17T02:20:46.301Z,9.67
2018-04-17T02:21:51.815Z,9.63
2018-04-17T02:22:57.323Z,9.58
2018-04-17T02:24:02.834Z,9.56
2018-04-17T02:25:08.342Z,9.64
2018-04-17T02:26:13.861Z,9.57
2018-04-17T02:27:19.367Z,9.66
2018-04-17T02:28:24.874Z,9.63
2018-04-17T02:29:30.392Z,9.60
2018-04-17T02:30:35.907Z,9.53
2018-04-17T02:31:41.411Z,9.52
2018-04-17T02:32:46.925Z,9.57
2018-04-17T02:33:52.428Z,9.56
2018-04-17T02:34:57.940Z,9.57
2018-04-17T02:36:03.453Z,9.46
2018-04-17T02:37:08.962Z,9.42
2018-04-17T02:38:14.488Z,9.53
2018-04-17T02:39:19.990Z,9.50
2018-04-17T02:40:25.495Z,9.48
2018-04-17T02:41:31.007Z,9.48
2018-04-17T02:42:36.518Z,9.56
2018-04-17T02:43:42.038Z,9.52
2018-04-17T02:44:47.538Z,9.43
2018-04-17T02:45:53.048Z,9.43
2018-04-17T02:46:58.559Z,9.53
2018-04-17T02:48:04.075Z,9.48
2018-04-17T02:49:09.580Z,9.39
2018-04-17T02:50:15.090Z,9.38
2018-04-17T02:51:20.601Z,9.42
2018-04-17T02:52:26.114Z,9.39
2018-04-17T02:53:31.623Z,9.39
2018-04-17T02:54:37.132Z,9.35
2018-04-17T02:55:42.644Z,9.34
2018-04-17T02:56:48.154Z,9.34
2018-04-17T02:57:53.674Z,9.38
2018-04-17T02:58:59.176Z,9.42
2018-04-17T03:00:04.691Z,9.31
2018-04-17T03:01:10.203Z,9.32
2018-04-17T03:02:15.710Z,9.25
2018-04-17T03:03:21.245Z,9.32
2018-04-17T03:04:26.773Z,9.28
2018-04-17T03:05:32.240Z,9.38
2018-04-17T03:06:37.752Z,9.28
2018-04-17T03:07:43.266Z,9.31
2018-04-17T03:08:48.769Z,9.34
2018-04-17T03:09:54.280Z,9.34
2018-04-17T03:10:59.797Z,9.50
2018-04-17T03:12:05.300Z,9.53
2018-04-17T03:13:10.813Z,9.57
2018-04-17T03:14:16.325Z,9.52
2018-04-17T03:15:21.837Z,9.52
2018-04-17T03:16:27.344Z,9.60
2018-04-17T03:17:32.866Z,9.52
2018-04-17T03:18:38.364Z,9.52
2018-04-17T03:19:43.882Z,9.50
2018-04-17T03:20:49.387Z,9.45
2018-04-17T03:21:54.909Z,9.46
2018-04-17T03:23:00.408Z,9.40
2018-04-17T03:24:05.919Z,9.53
2018-04-17T03:25:11.429Z,9.57
2018-04-17T03:26:16.941Z,9.45
2018-04-17T03:27:22.448Z,9.56
2018-04-17T03:28:27.963Z,9.58
2018-04-17T03:29:33.482Z,9.57
2018-04-17T03:30:38.982Z,9.56
2018-04-17T03:31:44.497Z,9.52
2018-04-17T03:32:50.007Z,9.52
2018-04-17T03:33:55.513Z,9.53
2018-04-17T03:35:01.023Z,9.58
2018-04-17T03:36:06.551Z,9.57
2018-04-17T03:37:12.044Z,9.50
2018-04-17T03:38:17.555Z,9.60
2018-04-17T03:39:23.067Z,9.48
2018-04-17T03:40:28.590Z,9.49
2018-04-17T03:41:34.091Z,9.45
2018-04-17T03:42:39.599Z,9.35
2018-04-17T03:43:45.153Z,9.35
2018-04-17T03:44:50.638Z,9.38
2018-04-17T03:45:56.129Z,9.40
2018-04-17T03:47:01.641Z,9.38
2018-04-17T03:48:07.151Z,9.38
2018-04-17T03:49:12.668Z,9.45
2018-04-17T03:50:18.174Z,9.42
2018-04-17T03:51:23.686Z,9.40
2018-04-17T03:52:29.193Z,9.49
2018-04-17T03:53:34.705Z,9.38
2018-04-17T03:54:40.215Z,9.35
2018-04-17T03:55:45.727Z,9.38
2018-04-17T03:56:51.237Z,9.39
2018-04-17T03:57:56.745Z,9.30
2018-04-17T03:59:02.256Z,9.28
2018-04-17T04:00:07.764Z,9.32
2018-04-17T04:01:13.298Z,9.30
2018-04-17T04:02:18.788Z,9.28
2018-04-17T04:03:24.295Z,9.21
2018-04-17T04:04:29.807Z,9.15
2018-04-17T04:05:35.318Z,9.23
2018-04-17T04:06:40.825Z,9.20
2018-04-17T04:07:46.341Z,9.15
2018-04-17T04:08:51.847Z,9.12
2018-04-17T04:09:57.358Z,9.06
2018-04-17T04:11:02.876Z,9.06
2018-04-17T04:12:08.379Z,9.02
2018-04-17T04:13:13.892Z,8.97
2018-04-17T04:14:19.404Z,8.99
2018-04-17T04:15:24.917Z,8.94
2018-04-17T04:16:30.423Z,9.01
2018-04-17T04:17:35.939Z,8.99
2018-04-17T04:18:41.448Z,8.96
2018-04-17T04:19:46.958Z,8.87
2018-04-17T04:20:52.463Z,8.93
2018-04-17T04:21:57.978Z,8.93
2018-04-17T04:23:03.485Z,8.94
2018-04-17T04:24:09.012Z,8.90
2018-04-17T04:25:14.507Z,8.91
2018-04-17T04:26:20.018Z,8.90
2018-04-17T04:27:25.538Z,8.93
2018-04-17T04:28:31.041Z,8.88
2018-04-17T04:29:36.556Z,8.88
2018-04-17T04:30:42.056Z,8.88
2018-04-17T04:31:47.577Z,8.99
2018-04-17T04:32:53.078Z,8.87
2018-04-17T04:33:58.587Z,8.96
2018-04-17T04:35:04.122Z,8.97
2018-04-17T04:36:09.607Z,8.97
2018-04-17T04:37:15.131Z,8.91
2018-04-17T04:38:20.632Z,8.91
2018-04-17T04:39:26.161Z,8.86
2018-04-17T04:40:31.654Z,8.97
2018-04-17T04:41:37.165Z,8.88
2018-04-17T04:42:42.669Z,8.91
2018-04-17T04:43:48.188Z,8.94
2018-04-17T04:44:53.693Z,8.96
2018-04-17T04:45:59.205Z,8.87
2018-04-17T04:47:04.719Z,8.84
2018-04-17T04:48:10.223Z,8.93
2018-04-17T04:49:15.730Z,8.90
2018-04-17T04:50:21.249Z,8.87
2018-04-17T04:51:26.757Z,8.87
2018-04-17T04:52:32.264Z,8.86
2018-04-17T04:53:37.773Z,8.91
2018-04-17T04:54:43.290Z,8.81
2018-04-17T04:55:48.806Z,8.88
2018-04-17T04:56:54.304Z,8.96
2018-04-17T04:57:59.815Z,8.94
2018-04-17T04:59:05.330Z,8.94
2018-04-17T05:00:10.843Z,8.96
2018-04-17T05:01:16.355Z,8.88
2018-04-17T05:02:21.863Z,8.90
2018-04-17T05:03:27.365Z,8.99
2018-04-17T05:04:32.886Z,8.96
2018-04-17T05:05:38.389Z,8.91
2018-04-17T05:06:43.900Z,8.87
2018-04-17T05:07:49.409Z,8.87
2018-04-17T05:08:54.922Z,9.04
2018-04-17T05:10:00.427Z,9.05
2018-04-17T05:11:05.938Z,9.02
2018-04-17T05:12:11.452Z,8.96
2018-04-17T05:13:16.969Z,8.97
2018-04-17T05:14:22.477Z,8.99
2018-04-17T05:15:27.978Z,9.05
2018-04-17T05:16:33.488Z,9.02
2018-04-17T05:17:38.998Z,9.06
2018-04-17T05:18:44.512Z,9.04
2018-04-17T05:19:50.023Z,9.09
2018-04-17T05:20:55.536Z,9.10
2018-04-17T05:22:01.041Z,9.12
2018-04-17T05:23:06.552Z,9.21
2018-04-17T05:24:12.072Z,9.21
2018-04-17T05:25:17.580Z,9.20
2018-04-17T05:26:23.094Z,9.24
2018-04-17T05:27:28.592Z,9.27
2018-04-17T05:28:34.106Z,9.25
2018-04-17T05:29:39.618Z,9.32
2018-04-17T05:30:45.130Z,9.28
2018-04-17T05:31:50.638Z,9.32
2018-04-17T05:32:56.149Z,9.31
2018-04-17T05:34:01.670Z,9.24
2018-04-17T05:35:07.165Z,9.28
2018-04-17T05:36:12.678Z,9.34
2018-04-17T05:37:18.190Z,9.28
2018-04-17T05:38:23.707Z,9.25
2018-04-17T05:39:29.210Z,9.31
2018-04-17T05:40:34.773Z,9.35
2018-04-17T05:41:40.229Z,9.30
2018-04-17T05:42:45.738Z,9.39
2018-04-17T05:43:51.256Z,9.38
2018-04-17T05:44:56.762Z,9.38
2018-04-17T05:46:02.278Z,9.45
2018-04-17T05:47:07.783Z,9.43
2018-04-17T05:48:13.299Z,9.50
2018-04-17T05:49:18.809Z,9.58
2018-04-17T05:50:24.330Z,9.45
2018-04-17T05:51:29.826Z,9.50
2018-04-17T05:52:35.337Z,9.56
2018-04-17T05:53:40.858Z,9.66
2018-04-17T05:54:46.361Z,9.61
2018-04-17T05:55:51.899Z,9.66
2018-04-17T05:56:57.379Z,9.70
2018-04-17T05:58:02.898Z,9.81
2018-04-17T05:59:08.400Z,9.81
2018-04-17T06:00:13.923Z,9.82
2018-04-17T06:01:19.426Z,9.82
2018-04-17T06:02:24.929Z,9.86
2018-04-17T06:03:30.448Z,9.94
2018-04-17T06:04:35.954Z,10.03
2018-04-17T06:05:41.468Z,9.97
2018-04-17T06:06:46.979Z,10.04
2018-04-17T06:07:52.491Z,10.10
2018-04-17T06:08:57.997Z,10.04
2018-04-17T06:10:03.508Z,10.17
2018-04-17T06:11:09.024Z,10.09
2018-04-17T06:12:14.526Z,10.22
2018-04-17T06:13:20.040Z,10.28
2018-04-17T06:14:25.552Z,10.37
2018-04-17T06:15:31.060Z,10.39
2018-04-17T06:16:36.575Z,10.44
2018-04-17T06:17:42.088Z,10.44
2018-04-17T06:18:47.608Z,10.47
2018-04-17T06:19:53.110Z,10.53
2018-04-17T06:20:58.615Z,10.55
2018-04-17T06:22:04.128Z,10.56
2018-04-17T06:23:09.640Z,10.62
2018-04-17T06:24:15.151Z,10.63
2018-04-17T06:25:20.662Z,10.53
2018-04-17T06:26:26.179Z,10.74
2018-04-17T06:27:31.689Z,10.71
2018-04-17T06:28:37.200Z,10.80
2018-04-17T06:29:42.708Z,10.78
2018-04-17T06:30:48.215Z,10.83
2018-04-17T06:31:53.732Z,10.95
2018-04-17T06:32:59.251Z,10.94
2018-04-17T06:34:04.754Z,11.01
2018-04-17T06:35:10.274Z,10.99
2018-04-17T06:36:15.773Z,11.07
2018-04-17T06:37:21.282Z,11.10
2018-04-17T06:38:26.796Z,11.10
2018-04-17T06:39:32.318Z,11.13
2018-04-17T06:40:37.822Z,11.11
2018-04-17T06:41:43.374Z,11.16
2018-04-17T06:42:48.845Z,11.31
2018-04-17T06:43:54.356Z,11.25
2018-04-17T06:44:59.864Z,11.25
2018-04-17T06:46:05.385Z,11.39
2018-04-17T06:47:10.907Z,11.43
2018-04-17T06:48:16.399Z,11.41
2018-04-17T06:49:21.909Z,11.54
2018-04-17T06:50:27.421Z,11.53
2018-04-17T06:51:32.935Z,11.59
2018-04-17T06:52:38.525Z,11.65
2018-04-17T06:53:43.971Z,11.65
2018-04-17T06:54:49.478Z,11.70
2018-04-17T06:55:54.994Z,11.77
2018-04-17T06:57:00.496Z,11.93
2018-04-17T06:58:06.073Z,11.89
2018-04-17T06:59:11.579Z,12.04
2018-04-17T07:00:17.036Z,12.01
2018-04-17T07:01:22.549Z,12.15
2018-04-17T07:02:28.059Z,12.13
2018-04-17T07:03:33.569Z,12.23
2018-04-17T07:04:39.086Z,12.27
2018-04-17T07:05:44.598Z,12.29
2018-04-17T07:06:50.102Z,12.39
2018-04-17T07:07:55.737Z,12.39
2018-04-17T07:09:01.149Z,12.56
2018-04-17T07:10:06.647Z,12.67
2018-04-17T07:11:12.159Z,12.60
2018-04-17T07:12:17.695Z,12.78
2018-04-17T07:13:23.188Z,12.79
2018-04-17T07:14:28.693Z,12.82
2018-04-17T07:15:34.208Z,12.92
2018-04-17T07:16:39.721Z,12.99
2018-04-17T07:17:45.241Z,13.00
2018-04-17T07:18:50.752Z,13.04
2018-04-17T07:19:56.259Z,13.11
2018-04-17T07:21:01.769Z,13.22
2018-04-17T07:22:07.282Z,13.27
2018-04-17T07:23:12.790Z,13.24
2018-04-17T07:24:18.310Z,13.36
2018-04-17T07:25:23.818Z,13.43
2018-04-17T07:26:29.332Z,13.56
2018-04-17T07:27:34.843Z,13.55
2018-04-17T07:28:40.359Z,13.63
2018-04-17T07:29:45.867Z,13.67
2018-04-17T07:30:51.380Z,13.81
2018-04-17T07:31:56.959Z,13.89
2018-04-17T07:33:02.408Z,13.89
2018-04-17T07:34:07.920Z,13.99
2018-04-17T07:35:13.437Z,14.10
2018-04-17T07:36:18.959Z,14.21
2018-04-17T07:37:24.460Z,14.34
2018-04-17T07:38:29.981Z,14.34
2018-04-17T07:39:35.485Z,14.38
2018-04-17T07:40:41.002Z,14.53
2018-04-17T07:41:46.516Z,14.56
2018-04-17T07:42:52.043Z,14.62
2018-04-17T07:43:57.543Z,14.69
2018-04-17T07:45:03.057Z,14.71
2018-04-17T07:46:08.567Z,14.86
2018-04-17T07:47:14.092Z,14.95
2018-04-17T07:48:19.606Z,15.03
2018-04-17T07:49:25.113Z,15.08
2018-04-17T07:50:30.627Z,15.15
2018-04-17T07:51:36.147Z,15.17
2018-04-17T07:52:41.662Z,15.26
2018-04-17T07:53:47.164Z,15.33
2018-04-17T07:54:52.680Z,15.42
2018-04-17T07:55:58.197Z,15.43
2018-04-17T07:57:03.707Z,15.52
2018-04-17T07:58:09.230Z,15.61
2018-04-17T07:59:14.747Z,15.61
2018-04-17T08:00:20.267Z,15.75
2018-04-17T08:01:25.876Z,15.86
2018-04-17T08:02:31.283Z,15.94
2018-04-17T08:03:36.799Z,15.99
2018-04-17T08:04:42.351Z,16.04
2018-04-17T08:05:47.834Z,16.11
2018-04-17T08:06:53.342Z,16.18
2018-04-17T08:07:58.850Z,16.16
2018-04-17T08:09:04.375Z,16.34
2018-04-17T08:10:09.885Z,16.38
2018-04-17T08:11:15.407Z,16.38
2018-04-17T08:12:20.926Z,16.50
2018-04-17T08:13:26.429Z,16.52
2018-04-17T08:14:31.940Z,16.56
2018-04-17T08:15:37.452Z,16.71
2018-04-17T08:16:42.965Z,16.78
2018-04-17T08:17:48.486Z,16.75
2018-04-17T08:18:54.007Z,16.81
2018-04-17T08:19:59.518Z,16.89
2018-04-17T08:21:05.034Z,16.95
2018-04-17T08:22:10.541Z,17.03
2018-04-17T08:23:16.057Z,17.06
2018-04-17T08:24:21.572Z,17.13
2018-04-17T08:25:27.110Z,17.13
2018-04-17T08:26:32.624Z,17.23
2018-04-17T08:27:38.123Z,17.22
2018-04-17T08:28:43.634Z,17.36
2018-04-17T08:29:49.148Z,17.47
2018-04-17T08:30:54.669Z,17.43
2018-04-17T08:32:00.180Z,17.53
2018-04-17T08:33:05.694Z,17.55
2018-04-17T08:34:11.218Z,17.63
2018-04-17T08:35:16.725Z,17.66
2018-04-17T08:36:22.244Z,17.71
2018-04-17T08:37:27.764Z,17.74
2018-04-17T08:38:33.275Z,17.82
2018-04-17T08:39:38.792Z,17.88
2018-04-17T08:40:44.310Z,18.00
2018-04-17T08:41:49.820Z,17.89
2018-04-17T08:42:55.340Z,17.99
2018-04-17T08:44:00.850Z,18.02
2018-04-17T08:45:06.375Z,17.97
2018-04-17T08:46:11.897Z,18.12
2018-04-17T08:47:17.398Z,18.13
2018-04-17T08:48:22.917Z,18.10
2018-04-17T08:49:28.429Z,18.28
2018-04-17T08:50:33.950Z,18.28
2018-04-17T08:51:39.465Z,18.33
2018-04-17T08:52:44.987Z,18.29
2018-04-17T08:53:50.548Z,18.39
2018-04-17T08:54:56.014Z,18.46
2018-04-17T08:56:01.529Z,18.50
2018-04-17T08:57:07.045Z,18.42
2018-04-17T08:58:12.561Z,18.47
2018-04-17T08:59:18.074Z,18.52
2018-04-17T09:00:23.595Z,18.46
2018-04-17T09:01:29.122Z,18.46
2018-04-17T09:02:34.634Z,18.62
2018-04-17T09:03:40.148Z,18.57
2018-04-17T09:04:45.659Z,18.62
2018-04-17T09:05:51.172Z,18.73
2018-04-17T09:06:56.689Z,18.72
2018-04-17T09:08:02.208Z,18.67
2018-04-17T09:09:07.725Z,18.80
2018-04-17T09:10:13.240Z,18.77
2018-04-17T09:11:18.754Z,18.87
2018-04-17T09:12:24.270Z,18.92
2018-04-17T09:13:29.847Z,18.94
2018-04-17T09:14:35.321Z,19.13
2018-04-17T09:15:40.890Z,19.14
2018-04-17T09:16:46.339Z,19.25
2018-04-17T09:17:51.854Z,19.28
2018-04-17T09:18:57.369Z,19.40
2018-04-17T09:20:02.887Z,19.43
2018-04-17T09:21:08.414Z,19.50
2018-04-17T09:22:13.925Z,19.60
2018-04-17T09:23:19.445Z,19.60
2018-04-17T09:24:24.970Z,19.66
2018-04-17T09:25:30.473Z,19.68
2018-04-17T09:26:35.994Z,19.78
2018-04-17T09:27:41.506Z,19.87
2018-04-17T09:28:47.019Z,19.90
2018-04-17T09:29:52.548Z,19.97
2018-04-17T09:30:58.054Z,19.98
2018-04-17T09:32:03.574Z,20.16
2018-04-17T09:33:09.151Z,20.15
2018-04-17T09:34:14.605Z,20.21
2018-04-17T09:35:20.120Z,20.35
2018-04-17T09:36:25.644Z,20.47
2018-04-17T09:37:31.156Z,20.47
2018-04-17T09:38:36.677Z,20.50
2018-04-17T09:39:42.189Z,20.53
2018-04-17T09:40:47.727Z,20.51
2018-04-17T09:41:53.223Z,20.59
2018-04-17T09:42:58.745Z,20.59
2018-04-17T09:44:04.267Z,20.69
2018-04-17T09:45:09.777Z,20.68
2018-04-17T09:46:15.296Z,20.79
2018-04-17T09:47:20.815Z,20.79
2018-04-17T09:48:26.334Z,20.81
2018-04-17T09:49:31.847Z,20.76
2018-04-17T09:50:37.412Z,20.90
2018-04-17T09:51:42.881Z,20.93
2018-04-17T09:52:48.404Z,20.95
2018-04-17T09:53:53.922Z,21.04
2018-04-17T09:54:59.433Z,21.05
2018-04-17T09:56:04.954Z,21.16
2018-04-17T09:57:10.472Z,21.19
2018-04-17T09:58:15.994Z,21.24
2018-04-17T09:59:21.520Z,21.27
2018-04-17T10:00:27.026Z,21.38
2018-04-17T10:01:32.543Z,21.36
2018-04-17T10:02:38.060Z,21.39
2018-04-17T10:03:43.580Z,21.32
2018-04-17T10:04:49.094Z,21.44
2018-04-17T10:05:54.615Z,21.51
2018-04-17T10:07:00.129Z,21.46
2018-04-17T10:08:05.652Z,21.57
2018-04-17T10:09:11.198Z,21.60
2018-04-17T10:10:16.685Z,21.59
2018-04-17T10:11:22.205Z,21.53
2018-04-17T10:12:27.722Z,21.61
2018-04-17T10:13:33.241Z,21.60
2018-04-17T10:14:38.759Z,21.63
2018-04-17T10:15:44.277Z,21.63
2018-04-17T10:16:49.794Z,21.61
2018-04-17T10:17:55.312Z,21.56
2018-04-17T10:19:00.827Z,21.67
2018-04-17T10:20:06.372Z,21.60
2018-04-17T10:21:11.970Z,21.66
2018-04-17T10:22:17.387Z,21.66
2018-04-17T10:23:22.901Z,21.71
2018-04-17T10:24:28.418Z,21.69
2018-04-17T10:25:33.941Z,21.79
2018-04-17T10:26:39.458Z,21.94
2018-04-17T10:27:44.973Z,21.99
2018-04-17T10:28:50.499Z,21.97
2018-04-17T10:29:56.013Z,22.04
2018-04-17T10:31:01.530Z,22.07
2018-04-17T10:32:07.051Z,22.06
2018-04-17T10:33:12.566Z,22.16
2018-04-17T10:34:18.085Z,22.09
2018-04-17T10:35:23.605Z,22.14
2018-04-17T10:36:29.119Z,22.16
2018-04-17T10:37:34.642Z,22.27
2018-04-17T10:38:40.156Z,22.37
2018-04-17T10:39:45.729Z,22.34
2018-04-17T10:40:51.198Z,22.37
2018-04-17T10:41:56.710Z,22.41
2018-04-17T10:43:02.231Z,22.43
2018-04-17T10:44:07.753Z,22.44
2018-04-17T10:45:13.283Z,22.38
2018-04-17T10:46:18.787Z,22.47
2018-04-17T10:47:24.309Z,22.49
2018-04-17T10:48:29.824Z,22.54
2018-04-17T10:49:35.352Z,22.47
2018-04-17T10:50:40.866Z,22.50
2018-04-17T10:51:46.381Z,22.50
2018-04-17T10:52:51.898Z,22.56
2018-04-17T10:53:57.418Z,22.60
2018-04-17T10:55:02.990Z,22.60
2018-04-17T10:56:08.465Z,22.64
2018-04-17T10:57:13.973Z,22.57
2018-04-17T10:58:19.500Z,22.62
2018-04-17T10:59:25.017Z,22.60
2018-04-17T11:00:30.551Z,22.67
2018-04-17T11:01:36.048Z,22.68
2018-04-17T11:02:41.580Z,22.71
2018-04-17T11:03:47.086Z,22.65
2018-04-17T11:04:52.657Z,22.71
2018-04-17T11:05:58.126Z,22.71
2018-04-17T11:07:03.647Z,22.68
2018-04-17T11:08:09.168Z,22.82
2018-04-17T11:09:14.676Z,22.89
2018-04-17T11:10:20.251Z,22.89
2018-04-17T11:11:25.722Z,22.94
2018-04-17T11:12:31.239Z,22.99
2018-04-17T11:13:36.756Z,23.09
2018-04-17T11:14:42.277Z,23.23
2018-04-17T11:15:47.809Z,23.22
2018-04-17T11:16:53.316Z,23.27
2018-04-17T11:17:58.835Z,23.32
2018-04-17T11:19:04.351Z,23.40
2018-04-17T11:20:09.868Z,23.45
2018-04-17T11:21:15.403Z,23.46
2018-04-17T11:22:20.907Z,23.42
2018-04-17T11:23:26.432Z,23.52
2018-04-17T11:24:31.946Z,23.57
2018-04-17T11:25:37.469Z,23.64
2018-04-17T11:26:42.987Z,23.71
2018-04-17T11:27:48.514Z,23.68
2018-04-17T11:28:54.026Z,23.71
2018-04-17T11:29:59.560Z,23.72
2018-04-17T11:31:05.068Z,23.79
2018-04-17T11:32:10.589Z,23.79
2018-04-17T11:33:16.103Z,23.89
2018-04-17T11:34:21.622Z,23.94
2018-04-17T11:35:27.138Z,24.00
2018-04-17T11:36:32.660Z,24.00
2018-04-17T11:37:38.179Z,24.04
2018-04-17T11:38:43.699Z,24.04
2018-04-17T11:39:49.220Z,24.13
2018-04-17T11:40:54.739Z,24.19
2018-04-17T11:42:00.275Z,24.24
2018-04-17T11:43:05.791Z,24.27
2018-04-17T11:44:11.303Z,24.29
2018-04-17T11:45:16.831Z,24.44
2018-04-17T11:46:22.351Z,24.26
2018-04-17T11:47:27.856Z,24.41
2018-04-17T11:48:33.402Z,24.47
2018-04-17T11:49:38.903Z,24.47
2018-04-17T11:50:44.426Z,24.44
2018-04-17T11:51:49.949Z,24.50
2018-04-17T11:52:55.466Z,24.52
2018-04-17T11:54:00.976Z,24.56
2018-04-17T11:55:06.499Z,24.45
2018-04-17T11:56:12.033Z,24.54
2018-04-17T11:57:17.539Z,24.63
2018-04-17T11:58:23.067Z,24.60
2018-04-17T11:59:28.577Z,24.68
2018-04-17T12:00:34.099Z,24.76
2018-04-17T12:01:39.641Z,24.80
2018-04-17T12:02:45.139Z,24.82
2018-04-17T12:03:50.656Z,24.85
2018-04-17T12:04:56.205Z,24.90
2018-04-17T12:06:01.713Z,24.97
2018-04-17T12:07:07.227Z,24.97
2018-04-17T12:08:12.739Z,25.12
2018-04-17T12:09:18.259Z,25.07
2018-04-17T12:10:23.778Z,25.06
2018-04-17T12:11:29.300Z,25.02
2018-04-17T12:12:34.831Z,25.10
2018-04-17T12:13:40.344Z,25.07
2018-04-17T12:14:45.870Z,25.12
2018-04-17T12:15:51.387Z,25.09
2018-04-17T12:16:56.917Z,25.10
2018-04-17T12:18:02.429Z,25.13
2018-04-17T12:19:07.944Z,25.13
2018-04-17T12:20:13.464Z,25.13
2018-04-17T12:21:18.988Z,25.20
2018-04-17T12:22:24.529Z,25.24
2018-04-17T12:23:30.029Z,25.31
2018-04-17T12:24:35.549Z,25.24
2018-04-17T12:25:41.068Z,25.27
2018-04-17T12:26:46.587Z,25.34
2018-04-17T12:27:52.109Z,25.34
2018-04-17T12:28:57.627Z,25.34
2018-04-17T12:30:03.147Z,25.43
2018-04-17T12:31:08.669Z,25.46
2018-04-17T12:32:14.189Z,25.44
2018-04-17T12:33:19.709Z,25.46
2018-04-17T12:34:25.271Z,25.39
2018-04-17T12:35:30.749Z,25.59
2018-04-17T12:36:36.283Z,25.69
2018-04-17T12:37:41.796Z,25.71
2018-04-17T12:38:47.313Z,25.71
2018-04-17T12:39:52.850Z,25.68
2018-04-17T12:40:58.358Z,25.75
2018-04-17T12:42:03.875Z,25.86
2018-04-17T12:43:09.400Z,25.89
2018-04-17T12:44:14.918Z,25.86
2018-04-17T12:45:20.438Z,25.98
2018-04-17T12:46:25.957Z,25.93
2018-04-17T12:47:31.480Z,25.99
2018-04-17T12:48:37.007Z,26.09
2018-04-17T12:49:42.527Z,26.15
2018-04-17T12:50:48.047Z,26.08
2018-04-17T12:51:53.613Z,26.12
2018-04-17T12:52:59.090Z,26.09
2018-04-17T12:54:04.612Z,26.11
2018-04-17T12:55:10.130Z,26.17
2018-04-17T12:56:15.650Z,26.20
2018-04-17T12:57:21.177Z,26.20
2018-04-17T12:58:26.692Z,26.20
2018-04-17T12:59:32.211Z,26.25
2018-04-17T13:00:37.731Z,26.18
2018-04-17T13:01:43.253Z,26.27
2018-04-17T13:02:48.777Z,26.27
2018-04-17T13:03:54.301Z,26.18
2018-04-17T13:04:59.817Z,26.20
2018-04-17T13:06:05.348Z,26.25
2018-04-17T13:07:10.873Z,26.31
2018-04-17T13:08:16.382Z,26.28
2018-04-17T13:09:21.904Z,26.28
2018-04-17T13:10:27.425Z,26.28
2018-04-17T13:11:32.949Z,26.25
2018-04-17T13:12:38.474Z,26.24
2018-04-17T13:13:43.992Z,26.27
2018-04-17T13:14:49.511Z,26.32
2018-04-17T13:15:55.032Z,26.36
2018-04-17T13:17:00.560Z,26.37
2018-04-17T13:18:06.077Z,26.35
2018-04-17T13:19:11.598Z,26.37
2018-04-17T13:20:17.126Z,26.37
2018-04-17T13:21:22.644Z,26.28
2018-04-17T13:22:28.163Z,26.35
2018-04-17T13:23:33.681Z,26.36
2018-04-17T13:24:39.207Z,26.40
2018-04-17T13:25:44.724Z,26.43
2018-04-17T13:26:50.245Z,26.40
2018-04-17T13:27:55.768Z,26.49
2018-04-17T13:29:01.288Z,26.59
2018-04-17T13:30:06.815Z,26.55
2018-04-17T13:31:12.341Z,26.54
2018-04-17T13:32:17.858Z,26.54
2018-04-17T13:33:23.378Z,26.64
2018-04-17T13:34:28.905Z,26.62
2018-04-17T13:35:34.423Z,26.61
2018-04-17T13:36:39.950Z,26.62
2018-04-17T13:37:45.464Z,26.54
2018-04-17T13:38:50.984Z,26.64
2018-04-17T13:39:56.519Z,26.67
2018-04-17T13:41:02.028Z,26.65
2018-04-17T13:42:07.563Z,26.69
2018-04-17T13:43:13.073Z,26.74
2018-04-17T13:44:18.608Z,26.81
2018-04-17T13:45:24.115Z,26.89
2018-04-17T13:46:29.643Z,26.95
2018-04-17T13:47:35.159Z,27.02
2018-04-17T13:48:40.675Z,27.09
2018-04-17T13:49:46.205Z,26.96
2018-04-17T13:50:51.727Z,26.86
2018-04-17T13:51:57.252Z,26.91
2018-04-17T13:53:02.763Z,26.69
2018-04-17T13:54:08.323Z,26.68
2018-04-17T13:55:13.815Z,26.64
2018-04-17T13:56:19.325Z,26.52
2018-04-17T13:57:24.849Z,26.44
2018-04-17T13:58:30.372Z,26.35
2018-04-17T13:59:35.893Z,26.32
2018-04-17T14:00:41.414Z,26.29
2018-04-17T14:01:46.935Z,26.20
2018-04-17T14:02:52.454Z,26.25
2018-04-17T14:03:57.986Z,26.11
2018-04-17T14:05:03.498Z,26.06
2018-04-17T14:06:09.023Z,26.12
2018-04-17T14:07:14.561Z,26.15
2018-04-17T14:08:20.070Z,26.06
2018-04-17T14:09:25.632Z,25.98
2018-04-17T14:10:31.111Z,26.02
2018-04-17T14:11:36.689Z,25.99
2018-04-17T14:12:42.144Z,25.93